Anadarko, Texas
Current Conditions -  °F | °C
As of 4:55 PM on Tuesday 25 Nov 2014 (Local Time) from KRFI Reporting Station
Clear Clear  
Wind Chill: 58°   Ceiling: Unl
Heat Index: 58°   Visibility: 10mi
Dew Point: 31°   Wind: 0mph
Humidity: 35%   Direction: NA
Pressure: 30.17"   Gusts: NA
Location:  31.9447°N, 94.855°W
Report Text: KRFI 252255Z AUTO 00000KT 10SM CLR 15/M01 A3017 RMK AO2 T01461006
Loading
Personal Weather Stations






























Interactive Weather Map New forecast layout! Learn more

10-Day Weather Forecast

Advertisements
Track Severe Weather on mobile